createdAt,value
2022-11-16T00:01:16.563Z,11.45
2022-11-16T00:03:44.099Z,11.20
2022-11-16T00:06:11.762Z,12.40
2022-11-16T00:08:44.294Z,11.18
2022-11-16T00:11:14.477Z,12.57
2022-11-16T00:13:43.390Z,12.50
2022-11-16T00:16:18.143Z,13.48
2022-11-16T00:18:45.454Z,14.95
2022-11-16T00:21:12.201Z,14.15
2022-11-16T00:23:39.355Z,13.43
2022-11-16T00:26:08.585Z,12.25
2022-11-16T00:28:36.243Z,15.15
2022-11-16T00:31:05.866Z,16.52
2022-11-16T00:33:33.825Z,12.43
2022-11-16T00:36:05.467Z,11.80
2022-11-16T00:38:33.746Z,12.85
2022-11-16T00:41:00.802Z,10.77
2022-11-16T00:43:28.359Z,11.65
2022-11-16T00:45:55.174Z,13.73
2022-11-16T00:48:22.538Z,13.98
2022-11-16T00:50:49.493Z,16.98
2022-11-16T00:53:17.993Z,11.43
2022-11-16T00:55:46.269Z,13.25
2022-11-16T00:58:14.066Z,13.13
2022-11-16T01:00:41.974Z,13.13
2022-11-16T01:03:09.109Z,10.05
2022-11-16T01:05:36.138Z,11.32
2022-11-16T01:08:03.578Z,11.23
2022-11-16T01:10:30.878Z,11.32
2022-11-16T01:12:58.279Z,12.05
2022-11-16T01:15:27.004Z,11.90
2022-11-16T01:17:55.675Z,12.48
2022-11-16T01:20:25.886Z,13.75
2022-11-16T01:22:53.827Z,13.00
2022-11-16T01:25:20.988Z,13.32
2022-11-16T01:27:48.077Z,13.23
2022-11-16T01:30:16.017Z,14.43
2022-11-16T01:32:43.085Z,12.15
2022-11-16T01:35:10.678Z,13.18
2022-11-16T01:37:37.695Z,13.45
2022-11-16T01:40:04.897Z,13.77
2022-11-16T01:42:33.580Z,16.13
2022-11-16T01:45:14.133Z,13.20
2022-11-16T01:47:41.143Z,14.73
2022-11-16T01:50:13.222Z,13.65
2022-11-16T01:52:47.740Z,15.00
2022-11-16T01:55:14.935Z,16.88
2022-11-16T01:57:45.589Z,14.65
2022-11-16T02:00:13.306Z,13.20
2022-11-16T02:02:40.866Z,16.42
2022-11-16T02:05:08.502Z,14.20
2022-11-16T02:08:07.234Z,14.05
2022-11-16T02:10:57.214Z,14.13
2022-11-16T02:13:51.991Z,15.77
2022-11-16T02:16:43.498Z,13.73
2022-11-16T02:19:10.456Z,13.65
2022-11-16T02:21:43.114Z,14.40
2022-11-16T02:24:16.263Z,14.02
2022-11-16T02:27:00.909Z,14.32
2022-11-16T02:29:45.036Z,15.15
2022-11-16T02:32:17.694Z,13.10
2022-11-16T02:34:54.206Z,13.20
2022-11-16T02:37:24.586Z,13.70
2022-11-16T02:39:56.625Z,14.05
2022-11-16T02:42:30.560Z,14.73
2022-11-16T02:44:59.667Z,15.07
2022-11-16T02:47:31.229Z,13.82
2022-11-16T02:50:05.066Z,16.77
2022-11-16T02:52:32.072Z,16.15
2022-11-16T02:54:59.118Z,16.83
2022-11-16T02:57:51.765Z,16.23
2022-11-16T03:00:29.753Z,17.83
2022-11-16T03:03:07.446Z,13.82
2022-11-16T03:05:45.622Z,14.88
2022-11-16T03:08:26.452Z,16.58
2022-11-16T03:16:11.430Z,15.07
2022-11-16T03:18:40.797Z,16.95
2022-11-16T03:21:36.175Z,15.52
2022-11-16T03:24:03.629Z,17.42
2022-11-16T03:26:41.271Z,15.57
2022-11-16T03:29:20.300Z,16.98
2022-11-16T03:34:25.759Z,16.23
2022-11-16T03:36:55.904Z,19.33
2022-11-16T03:39:35.816Z,17.33
2022-11-16T03:42:09.435Z,18.38
2022-11-16T03:44:38.705Z,16.77
2022-11-16T03:47:05.735Z,15.75
2022-11-16T03:49:32.494Z,16.65
2022-11-16T03:51:59.571Z,17.27
2022-11-16T03:54:26.432Z,17.35
2022-11-16T03:56:53.519Z,17.27
2022-11-16T03:59:20.260Z,18.55
2022-11-16T04:01:47.279Z,17.40
2022-11-16T04:04:34.055Z,16.70
2022-11-16T04:07:19.849Z,19.50
2022-11-16T04:10:05.112Z,20.50
2022-11-16T04:12:51.024Z,22.25
2022-11-16T04:15:43.852Z,19.80
2022-11-16T04:18:29.256Z,21.17
2022-11-16T04:21:15.698Z,23.88
2022-11-16T04:24:01.754Z,20.35
2022-11-16T04:26:47.318Z,21.25
2022-11-16T04:29:14.762Z,21.88
2022-11-16T04:31:59.754Z,25.10
2022-11-16T04:34:45.336Z,27.92
2022-11-16T04:37:33.121Z,22.05
2022-11-16T04:40:00.189Z,18.30
2022-11-16T04:42:26.959Z,22.35
2022-11-16T04:45:12.763Z,24.80
2022-11-16T04:47:39.541Z,27.33
2022-11-16T04:50:07.165Z,33.45
2022-11-16T04:52:33.933Z,32.05
2022-11-16T04:55:00.980Z,27.90
2022-11-16T04:57:28.050Z,30.27
2022-11-16T04:59:55.137Z,34.33
2022-11-16T05:02:21.901Z,28.73
2022-11-16T05:04:48.983Z,29.58
2022-11-16T05:07:15.898Z,30.38
2022-11-16T05:09:45.489Z,28.33
2022-11-16T05:14:44.521Z,24.27
2022-11-16T05:17:12.063Z,29.08
2022-11-16T05:19:57.957Z,29.07
2022-11-16T05:22:25.164Z,30.42
2022-11-16T05:24:52.774Z,28.55
2022-11-16T05:27:21.409Z,27.65
2022-11-16T05:29:49.799Z,28.35
2022-11-16T05:32:18.001Z,28.40
2022-11-16T05:34:45.777Z,37.40
2022-11-16T05:37:13.191Z,35.40
2022-11-16T05:39:40.394Z,41.72
2022-11-16T05:42:07.812Z,42.05
2022-11-16T05:44:34.900Z,35.55
2022-11-16T05:47:01.934Z,45.17
2022-11-16T05:49:29.110Z,42.10
2022-11-16T05:51:55.951Z,44.87
2022-11-16T05:54:25.968Z,43.88
2022-11-16T05:56:54.101Z,47.85
2022-11-16T05:59:22.621Z,48.42
2022-11-16T06:01:49.971Z,45.37
2022-11-16T06:06:58.355Z,48.08
2022-11-16T06:09:25.412Z,51.85
2022-11-16T06:11:52.172Z,48.67
2022-11-16T06:14:19.289Z,51.00
2022-11-16T06:16:46.046Z,35.28
2022-11-16T06:19:13.081Z,36.83
2022-11-16T06:21:39.897Z,31.83
2022-11-16T06:24:09.237Z,38.35
2022-11-16T06:26:37.114Z,36.25
2022-11-16T06:29:04.230Z,36.88
2022-11-16T06:31:31.391Z,33.40
2022-11-16T06:33:58.434Z,33.17
2022-11-16T06:36:25.224Z,33.78
2022-11-16T06:38:52.271Z,32.53
2022-11-16T06:41:19.061Z,35.60
2022-11-16T06:43:46.268Z,43.38
2022-11-16T06:46:13.073Z,43.15
2022-11-16T06:48:40.226Z,33.63
2022-11-16T06:51:07.085Z,43.63
2022-11-16T06:53:34.178Z,45.70
2022-11-16T06:56:03.153Z,50.53
2022-11-16T07:01:06.069Z,48.53
2022-11-16T07:03:33.107Z,50.83
2022-11-16T07:05:59.845Z,48.05
2022-11-16T07:08:28.002Z,53.63
2022-11-16T07:10:54.729Z,50.35
2022-11-16T07:13:21.755Z,54.42
2022-11-16T07:15:48.500Z,61.67
2022-11-16T07:18:15.510Z,57.33
2022-11-16T07:20:42.234Z,52.87
2022-11-16T07:23:13.973Z,57.72
2022-11-16T07:25:41.315Z,50.65
2022-11-16T07:28:08.403Z,53.80
2022-11-16T07:30:35.183Z,55.42
2022-11-16T07:33:02.205Z,61.15
2022-11-16T07:35:29.170Z,54.15
2022-11-16T07:37:56.204Z,58.53
2022-11-16T07:40:23.037Z,61.17
2022-11-16T07:42:50.175Z,57.90
2022-11-16T07:45:16.968Z,55.83
2022-11-16T07:47:44.011Z,58.00
2022-11-16T07:50:11.071Z,62.47
2022-11-16T07:52:38.108Z,55.42
2022-11-16T07:55:05.886Z,66.97
2022-11-16T07:57:33.047Z,60.33
2022-11-16T08:00:00.127Z,58.15
2022-11-16T08:02:27.143Z,57.83
2022-11-16T08:04:53.922Z,61.45
2022-11-16T08:07:20.970Z,61.63
2022-11-16T08:09:48.247Z,64.47
2022-11-16T08:12:15.926Z,58.13
2022-11-16T08:14:42.677Z,60.10
2022-11-16T08:17:09.723Z,62.42
2022-11-16T08:19:36.719Z,61.75
2022-11-16T08:22:03.899Z,62.83
2022-11-16T08:24:31.133Z,64.15
2022-11-16T08:26:58.904Z,61.08
2022-11-16T08:29:26.444Z,61.22
2022-11-16T08:31:54.024Z,56.83
2022-11-16T08:34:21.402Z,52.60
2022-11-16T08:36:48.519Z,56.58
2022-11-16T08:39:15.398Z,57.25
2022-11-16T08:41:44.302Z,50.65
2022-11-16T08:44:11.625Z,51.03
2022-11-16T08:46:39.907Z,48.17
2022-11-16T08:49:06.768Z,52.30
2022-11-16T08:51:33.907Z,50.08
2022-11-16T08:54:01.657Z,57.72
2022-11-16T08:56:30.216Z,61.92
2022-11-16T08:58:59.161Z,67.30
2022-11-16T09:01:30.135Z,68.35
2022-11-16T09:03:57.371Z,71.20
2022-11-16T09:06:26.049Z,75.30
2022-11-16T09:08:53.016Z,64.93
2022-11-16T09:11:22.245Z,63.70
2022-11-16T09:13:51.522Z,56.42
2022-11-16T09:16:21.109Z,56.97
2022-11-16T09:18:49.977Z,53.58
2022-11-16T09:21:21.807Z,57.53
2022-11-16T09:23:49.502Z,65.93
2022-11-16T09:26:20.527Z,61.03
2022-11-16T09:28:48.447Z,58.17
2022-11-16T09:31:18.993Z,53.13
2022-11-16T09:33:52.062Z,54.65
2022-11-16T09:36:20.704Z,51.25
2022-11-16T09:39:23.745Z,51.80
2022-11-16T09:41:59.826Z,46.78
2022-11-16T09:44:41.601Z,49.60
2022-11-16T09:47:16.349Z,46.00
2022-11-16T09:49:51.284Z,43.20
2022-11-16T09:52:36.258Z,43.47
2022-11-16T09:55:25.684Z,34.60
2022-11-16T09:57:55.932Z,39.97
2022-11-16T10:00:23.790Z,36.00
2022-11-16T10:03:06.394Z,32.37
2022-11-16T10:05:41.164Z,29.00
2022-11-16T10:08:34.508Z,30.50
2022-11-16T10:11:40.054Z,35.07
2022-11-16T10:14:24.978Z,72.20
2022-11-16T10:17:29.357Z,60.07
2022-11-16T10:20:19.255Z,34.70
2022-11-16T10:23:13.944Z,31.30
2022-11-16T10:25:46.442Z,32.93
2022-11-16T10:28:30.382Z,29.97
2022-11-16T10:31:18.525Z,34.77
2022-11-16T10:33:49.130Z,33.47
2022-11-16T10:36:16.790Z,31.17
2022-11-16T10:38:45.133Z,28.67
2022-11-16T10:41:18.571Z,30.85
2022-11-16T10:43:46.362Z,28.07
2022-11-16T10:46:13.317Z,26.07
2022-11-16T10:48:43.416Z,30.57
2022-11-16T10:51:10.974Z,27.23
2022-11-16T10:53:40.315Z,25.93
2022-11-16T10:56:20.165Z,28.27
2022-11-16T10:58:55.726Z,28.70
2022-11-16T11:01:30.175Z,28.97
2022-11-16T11:03:56.990Z,24.03
2022-11-16T11:06:26.133Z,24.70
2022-11-16T11:08:52.969Z,23.95
2022-11-16T11:11:41.991Z,22.57
2022-11-16T11:14:15.713Z,25.52
2022-11-16T11:16:42.768Z,27.37
2022-11-16T11:19:29.084Z,31.77
2022-11-16T11:21:58.931Z,30.83
2022-11-16T11:27:20.698Z,24.15
2022-11-16T11:29:53.579Z,21.77
2022-11-16T11:32:24.382Z,23.48
2022-11-16T11:34:54.815Z,21.27
2022-11-16T11:37:27.317Z,21.07
2022-11-16T11:40:20.546Z,19.70
2022-11-16T11:43:01.007Z,24.30
2022-11-16T11:45:36.241Z,22.35
2022-11-16T11:48:27.981Z,17.43
2022-11-16T11:50:58.915Z,22.30
2022-11-16T11:53:35.387Z,20.47
2022-11-16T11:56:02.751Z,17.50
2022-11-16T11:58:34.126Z,16.87
2022-11-16T12:01:24.886Z,18.67
2022-11-16T12:04:10.464Z,18.07
2022-11-16T12:06:42.635Z,19.03
2022-11-16T12:09:29.247Z,20.67
2022-11-16T12:12:30.306Z,23.37
2022-11-16T12:15:03.333Z,19.03
2022-11-16T12:17:54.691Z,20.27
2022-11-16T12:20:41.459Z,16.20
2022-11-16T12:23:44.238Z,19.63
2022-11-16T12:26:16.935Z,16.27
2022-11-16T12:29:03.723Z,13.73
2022-11-16T12:31:37.024Z,15.37
2022-11-16T12:34:32.806Z,14.23
2022-11-16T12:37:04.361Z,11.80
2022-11-16T12:39:35.351Z,11.67
2022-11-16T12:42:02.382Z,16.97
2022-11-16T12:44:51.396Z,16.33
2022-11-16T12:47:32.056Z,12.73
2022-11-16T12:50:13.974Z,13.53
2022-11-16T12:52:46.978Z,17.47
2022-11-16T12:55:27.567Z,12.63
2022-11-16T12:58:07.039Z,18.67
2022-11-16T13:00:50.199Z,13.85
2022-11-16T13:03:29.510Z,11.50
2022-11-16T13:05:58.366Z,9.02
2022-11-16T13:08:28.445Z,14.83
2022-11-16T13:11:02.045Z,10.60
2022-11-16T13:13:38.833Z,10.43
2022-11-16T13:16:07.361Z,10.37
2022-11-16T13:18:38.903Z,16.45
2022-11-16T13:21:42.473Z,9.57
2022-11-16T13:24:19.434Z,11.10
2022-11-16T13:27:33.910Z,13.97
2022-11-16T13:30:06.600Z,11.67
2022-11-16T13:32:34.903Z,12.87
2022-11-16T13:35:05.338Z,14.93
2022-11-16T13:37:37.892Z,9.70
2022-11-16T13:40:05.120Z,8.07
2022-11-16T13:43:10.811Z,9.10
2022-11-16T13:45:49.833Z,14.60
2022-11-16T13:48:25.735Z,16.55
2022-11-16T13:50:59.078Z,10.93
2022-11-16T13:56:16.092Z,10.25
2022-11-16T13:58:49.278Z,10.53
2022-11-16T14:01:17.908Z,10.43
2022-11-16T14:03:51.545Z,11.93
2022-11-16T14:06:24.464Z,11.77
2022-11-16T14:08:53.438Z,16.23
2022-11-16T14:14:11.734Z,17.23
2022-11-16T14:16:51.595Z,13.80
2022-11-16T14:19:57.072Z,12.60
2022-11-16T14:22:42.208Z,12.40
2022-11-16T14:25:33.259Z,14.77
2022-11-16T14:28:14.981Z,15.50
2022-11-16T14:31:15.516Z,14.23
2022-11-16T14:33:42.958Z,17.23
2022-11-16T14:36:10.789Z,21.27
2022-11-16T14:38:42.022Z,14.90
2022-11-16T14:41:21.132Z,23.63
2022-11-16T14:43:52.812Z,26.73
2022-11-16T14:46:27.971Z,15.80
2022-11-16T14:48:57.358Z,17.30
2022-11-16T14:51:34.993Z,16.52
2022-11-16T14:54:24.917Z,16.60
2022-11-16T14:57:13.071Z,31.87
2022-11-16T14:59:40.124Z,21.10
2022-11-16T15:02:18.904Z,18.73
2022-11-16T15:04:46.436Z,13.75
2022-11-16T15:07:15.416Z,17.63
2022-11-16T15:09:49.318Z,14.93
2022-11-16T15:12:37.399Z,14.57
2022-11-16T15:15:08.219Z,13.00
2022-11-16T15:17:35.516Z,16.80
2022-11-16T15:20:20.040Z,19.50
2022-11-16T15:22:50.829Z,17.10
2022-11-16T15:25:41.606Z,14.50
2022-11-16T15:28:27.930Z,15.13
2022-11-16T15:31:00.862Z,18.80
2022-11-16T15:33:36.555Z,13.53
2022-11-16T15:36:39.668Z,15.37
2022-11-16T15:39:13.109Z,19.50
2022-11-16T15:41:40.604Z,20.50
2022-11-16T15:44:15.090Z,12.37
2022-11-16T15:46:46.067Z,14.53
2022-11-16T15:49:32.459Z,12.93
2022-11-16T15:52:00.055Z,13.37
2022-11-16T15:54:52.631Z,17.27
2022-11-16T15:57:22.041Z,20.80
2022-11-16T15:59:54.855Z,17.42
2022-11-16T16:02:25.921Z,25.20
2022-11-16T16:04:52.759Z,20.87
2022-11-16T16:07:40.192Z,17.70
2022-11-16T16:10:13.328Z,21.87
2022-11-16T16:12:54.336Z,18.83
2022-11-16T16:15:21.224Z,18.10
2022-11-16T16:17:48.878Z,18.10
2022-11-16T16:20:21.847Z,20.03
2022-11-16T16:22:49.117Z,26.13
2022-11-16T16:25:35.982Z,34.93
2022-11-16T16:28:03.554Z,34.80
2022-11-16T16:30:31.534Z,37.87
2022-11-16T16:32:58.950Z,17.93
2022-11-16T16:35:26.619Z,11.90
2022-11-16T16:38:01.254Z,15.53
2022-11-16T16:40:29.122Z,10.60
2022-11-16T16:42:57.940Z,12.83
2022-11-16T16:45:34.517Z,13.70
2022-11-16T16:48:01.549Z,16.00
2022-11-16T16:50:28.771Z,16.17
2022-11-16T16:52:55.808Z,10.60
2022-11-16T16:55:22.622Z,16.07
2022-11-16T16:57:49.699Z,13.93
2022-11-16T17:00:17.116Z,16.50
2022-11-16T17:02:44.359Z,14.23
2022-11-16T17:05:11.154Z,19.50
2022-11-16T17:07:38.224Z,28.47
2022-11-16T17:10:05.573Z,16.73
2022-11-16T17:12:32.737Z,17.03
2022-11-16T17:14:59.538Z,19.57
2022-11-16T17:17:27.119Z,13.90
2022-11-16T17:19:53.942Z,15.23
2022-11-16T17:22:21.295Z,12.17
2022-11-16T17:24:48.062Z,16.40
2022-11-16T17:27:15.202Z,13.60
2022-11-16T17:29:41.950Z,9.83
2022-11-16T17:32:09.078Z,20.87
2022-11-16T17:34:37.828Z,20.87
2022-11-16T17:37:04.878Z,14.23
2022-11-16T17:39:31.591Z,16.70
2022-11-16T17:41:58.648Z,18.60
2022-11-16T17:44:26.704Z,19.17
2022-11-16T17:46:53.768Z,13.60
2022-11-16T17:49:20.528Z,23.53
2022-11-16T17:51:47.676Z,15.03
2022-11-16T17:54:14.945Z,16.60
2022-11-16T17:56:43.313Z,17.02
2022-11-16T17:59:10.083Z,20.33
2022-11-16T18:01:37.304Z,20.93
2022-11-16T18:04:04.752Z,24.63
2022-11-16T18:06:33.208Z,32.77
2022-11-16T18:09:00.160Z,22.40
2022-11-16T18:11:28.336Z,31.60
2022-11-16T18:14:00.609Z,17.63
2022-11-16T18:16:31.628Z,21.80
2022-11-16T18:19:03.817Z,19.40
2022-11-16T18:21:31.798Z,26.03
2022-11-16T18:23:59.644Z,28.00
2022-11-16T18:26:26.680Z,26.90
2022-11-16T18:28:54.007Z,13.67
2022-11-16T18:31:23.251Z,14.87
2022-11-16T18:33:50.895Z,15.60
2022-11-16T18:36:19.654Z,17.40
2022-11-16T18:38:47.138Z,15.27
2022-11-16T18:41:14.197Z,17.43
2022-11-16T18:43:55.340Z,15.13
2022-11-16T18:46:25.686Z,13.67
2022-11-16T18:48:52.630Z,10.63
2022-11-16T18:51:21.295Z,21.47
2022-11-16T18:53:48.612Z,8.95
2022-11-16T18:56:16.361Z,12.60
2022-11-16T18:58:50.247Z,12.13
2022-11-16T19:01:19.832Z,12.50
2022-11-16T19:03:46.817Z,18.40
2022-11-16T19:06:15.649Z,11.97
2022-11-16T19:08:43.618Z,9.10
2022-11-16T19:11:12.092Z,14.87
2022-11-16T19:13:40.384Z,19.50
2022-11-16T19:16:08.586Z,13.32
2022-11-16T19:18:36.482Z,21.40
2022-11-16T19:21:15.176Z,21.90
2022-11-16T19:23:44.507Z,20.40
2022-11-16T19:26:13.409Z,19.60
2022-11-16T19:28:42.861Z,25.55
2022-11-16T19:31:16.050Z,21.70
2022-11-16T19:33:44.510Z,18.93
2022-11-16T19:36:16.934Z,7.72
2022-11-16T19:38:45.252Z,17.90
2022-11-16T19:41:14.491Z,15.85
2022-11-16T19:43:42.341Z,11.10
2022-11-16T19:46:17.830Z,9.77
2022-11-16T19:48:46.003Z,24.77
2022-11-16T19:51:19.206Z,20.63
2022-11-16T19:53:46.433Z,19.97
2022-11-16T19:56:15.308Z,12.87
2022-11-16T19:58:42.752Z,5.40
2022-11-16T20:01:15.269Z,10.30
2022-11-16T20:03:42.339Z,12.27
2022-11-16T20:06:21.691Z,14.60
2022-11-16T20:08:51.023Z,10.82
2022-11-16T20:11:26.278Z,5.20
2022-11-16T20:13:54.695Z,5.60
2022-11-16T20:16:24.278Z,6.07
2022-11-16T20:18:52.785Z,15.33
2022-11-16T20:21:25.617Z,8.55
2022-11-16T20:23:53.498Z,7.03
2022-11-16T20:26:21.486Z,10.20
2022-11-16T20:28:52.709Z,12.03
2022-11-16T20:31:22.505Z,11.23
2022-11-16T20:33:54.790Z,8.23
2022-11-16T20:36:23.477Z,5.90
2022-11-16T20:38:50.664Z,6.05
2022-11-16T20:41:18.857Z,4.33
2022-11-16T20:43:47.225Z,3.40
2022-11-16T20:46:16.074Z,3.65
2022-11-16T20:48:43.773Z,3.75
2022-11-16T20:51:14.413Z,2.90
2022-11-16T20:53:41.201Z,4.50
2022-11-16T20:56:10.327Z,4.73
2022-11-16T20:58:37.841Z,5.78
2022-11-16T21:01:13.974Z,6.03
2022-11-16T21:03:42.563Z,4.67
2022-11-16T21:06:09.691Z,3.53
2022-11-16T21:08:37.916Z,5.07
2022-11-16T21:11:16.906Z,5.15
2022-11-16T21:14:04.143Z,4.15
2022-11-16T21:16:32.590Z,6.90
2022-11-16T21:19:00.400Z,5.90
2022-11-16T21:21:27.561Z,8.07
2022-11-16T21:23:55.166Z,5.57
2022-11-16T21:26:29.025Z,5.97
2022-11-16T21:28:56.734Z,6.33
2022-11-16T21:31:26.221Z,9.00
2022-11-16T21:36:23.053Z,7.83
2022-11-16T21:38:50.607Z,5.77
2022-11-16T21:41:19.222Z,4.87
2022-11-16T21:43:46.673Z,7.93
2022-11-16T21:46:16.017Z,6.90
2022-11-16T21:48:43.180Z,6.47
2022-11-16T21:51:12.990Z,4.30
2022-11-16T21:53:39.926Z,4.68
2022-11-16T21:56:10.440Z,5.80
2022-11-16T21:58:39.165Z,5.17
2022-11-16T22:01:06.555Z,4.05
2022-11-16T22:03:34.155Z,5.33
2022-11-16T22:06:22.199Z,5.53
2022-11-16T22:08:49.215Z,4.43
2022-11-16T22:11:17.069Z,3.90
2022-11-16T22:13:43.880Z,6.07
2022-11-16T22:16:15.137Z,4.93
2022-11-16T22:18:42.191Z,5.77
2022-11-16T22:21:09.187Z,4.73
2022-11-16T22:23:37.324Z,3.13
2022-11-16T22:26:07.490Z,2.45
2022-11-16T22:28:35.217Z,4.63
2022-11-16T22:31:07.384Z,4.10
2022-11-16T22:33:35.072Z,4.77
2022-11-16T22:36:02.330Z,3.27
2022-11-16T22:38:29.702Z,4.87
2022-11-16T22:40:57.491Z,3.77
2022-11-16T22:43:26.890Z,4.53
2022-11-16T22:48:23.846Z,3.87
2022-11-16T22:50:50.592Z,2.57
2022-11-16T22:53:17.604Z,3.63
2022-11-16T22:55:44.710Z,4.27
2022-11-16T22:58:11.711Z,3.27
2022-11-16T23:00:42.021Z,4.23
2022-11-16T23:03:09.504Z,2.53
2022-11-16T23:05:36.237Z,2.67
2022-11-16T23:08:03.230Z,2.30
2022-11-16T23:10:49.995Z,2.50
2022-11-16T23:13:35.756Z,3.40
2022-11-16T23:16:06.010Z,3.40
2022-11-16T23:18:33.002Z,2.87
2022-11-16T23:21:18.416Z,3.97
2022-11-16T23:24:03.695Z,4.03
2022-11-16T23:26:48.814Z,1.77
2022-11-16T23:29:15.840Z,2.10
2022-11-16T23:31:42.540Z,3.23
2022-11-16T23:34:09.506Z,2.77
2022-11-16T23:36:36.216Z,2.83
2022-11-16T23:39:03.272Z,3.00
2022-11-16T23:41:48.405Z,3.70
2022-11-16T23:44:15.400Z,3.27
2022-11-16T23:46:42.131Z,2.67
2022-11-16T23:49:09.116Z,3.97
2022-11-16T23:51:35.792Z,2.83
2022-11-16T23:54:04.849Z,2.80
2022-11-16T23:56:31.890Z,3.45
2022-11-16T23:58:58.885Z,3.60
